Time;durP1;ratioP1;P1;durP2;ratioP2;P2;SDS_P1;SDS_P2;PMS_P1;PMS_P2;Temp;Humidity;BMP_temperature;BMP_pressure;BME280_temperature;BME280_humidity;BME280_pressure;Samples;Min_cycle;Max_cycle;Signal;HPM_P1;HPM_P2
2022/01/25 00:25:56;;;;;;;64.05;38.20;;;4.60;99.90;;;;;;4914018;29;20134;-86
2022/01/25 00:28:42;;;;;;;58.92;41.25;;;4.60;99.90;;;;;;4897976;29;20057;-87
2022/01/25 00:31:13;;;;;;;61.05;41.63;;;4.50;99.90;;;;;;4895439;29;20063;-87
2022/01/25 00:33:47;;;;;;;61.45;38.60;;;4.50;99.90;;;;;;4913210;29;20142;-87
2022/01/25 00:36:16;;;;;;;59.92;39.83;;;4.50;99.90;;;;;;4912808;29;20043;-86
2022/01/25 00:38:42;;;;;;;62.13;41.15;;;4.50;99.90;;;;;;5007640;28;20052;-87
2022/01/25 00:41:08;;;;;;;64.22;42.83;;;4.50;99.90;;;;;;5029211;28;20480;-86
2022/01/25 00:43:33;;;;;;;61.38;41.15;;;4.50;99.90;;;;;;5010301;28;20160;-86
2022/01/25 00:46:04;;;;;;;62.72;40.42;;;4.40;99.90;;;;;;5011458;28;20340;-87
2022/01/25 00:54:02;;;;;;;62.30;43.35;;;4.40;99.90;;;;;;5011505;28;20041;-86
2022/01/25 00:56:36;;;;;;;65.70;40.15;;;4.40;99.90;;;;;;5010535;28;20057;-87
2022/01/25 00:59:22;;;;;;;65.03;41.58;;;4.40;99.90;;;;;;4994675;28;20046;-87
2022/01/25 01:01:50;;;;;;;67.95;41.58;;;4.40;99.90;;;;;;4994170;28;20046;-86
2022/01/25 01:04:17;;;;;;;64.88;41.30;;;4.30;99.90;;;;;;5011460;28;20135;-87
2022/01/25 01:06:45;;;;;;;64.78;42.40;;;4.40;99.90;;;;;;5028060;28;20052;-86
2022/01/25 01:09:12;;;;;;;65.78;39.97;;;4.40;99.90;;;;;;5028025;28;20042;-87
2022/01/25 01:11:46;;;;;;;65.63;40.47;;;4.30;99.90;;;;;;5009999;28;20081;-87
2022/01/25 01:33:34;;;;;;;63.42;39.67;;;4.30;99.90;;;;;;4932986;29;20448;-86
2022/01/25 01:43:44;;;;;;;69.43;39.15;;;4.30;99.90;;;;;;4913042;29;20524;-86
2022/01/25 01:51:43;;;;;;;64.03;38.55;;;4.30;99.90;;;;;;4920676;29;20090;-86
2022/01/25 01:54:13;;;;;;;62.55;39.28;;;4.30;99.90;;;;;;4924703;29;20047;-87
2022/01/25 01:56:40;;;;;;;65.15;40.00;;;4.30;99.90;;;;;;4925823;29;20059;-87
2022/01/25 01:59:11;;;;;;;61.53;39.53;;;4.30;99.90;;;;;;4935229;29;20040;-87
2022/01/25 02:01:38;;;;;;;64.28;40.15;;;4.30;99.90;;;;;;4941611;29;20504;-87
2022/01/25 02:04:06;;;;;;;62.78;40.00;;;4.30;99.90;;;;;;4920031;29;20051;-87
2022/01/25 02:06:32;;;;;;;65.22;39.92;;;4.30;99.90;;;;;;4934161;29;20043;-87
2022/01/25 02:08:58;;;;;;;64.82;41.80;;;4.30;99.90;;;;;;5000724;28;20053;-86
2022/01/25 02:11:24;;;;;;;65.00;41.03;;;4.30;99.90;;;;;;5013817;28;20045;-87
2022/01/25 02:13:51;;;;;;;63.63;39.90;;;4.30;99.90;;;;;;5013483;28;20155;-87
2022/01/25 02:16:33;;;;;;;60.40;38.75;;;4.30;99.90;;;;;;5013929;28;20091;-86
2022/01/25 02:24:37;;;;;;;64.43;39.35;;;4.30;99.90;;;;;;4982549;28;20091;-86
2022/01/25 02:27:03;;;;;;;67.07;41.50;;;4.30;99.90;;;;;;4997565;28;20049;-86
2022/01/25 02:29:29;;;;;;;65.00;43.03;;;4.30;99.90;;;;;;5013187;28;20107;-86
2022/01/25 02:31:55;;;;;;;62.90;39.33;;;4.30;99.90;;;;;;5013409;28;20405;-86
2022/01/25 02:34:22;;;;;;;66.95;39.53;;;4.30;99.90;;;;;;5013379;28;20128;-86
2022/01/25 02:37:14;;;;;;;70.10;41.40;;;4.30;99.90;;;;;;4995766;28;20053;-87
2022/01/25 02:39:43;;;;;;;64.55;40.67;;;4.30;99.90;;;;;;4996417;28;20045;-87
2022/01/25 02:42:17;;;;;;;65.00;40.65;;;4.30;99.90;;;;;;5031023;28;20080;-86
2022/01/25 02:44:43;;;;;;;69.45;41.08;;;4.30;99.90;;;;;;5029560;28;20128;-86
2022/01/25 02:49:59;;;;;;;68.28;41.58;;;4.20;99.90;;;;;;4945654;28;20416;-86
2022/01/25 02:52:25;;;;;;;68.50;43.03;;;4.20;99.90;;;;;;4940366;28;20086;-86
2022/01/25 02:54:51;;;;;;;63.45;41.47;;;4.20;99.90;;;;;;4952855;28;20058;-86
2022/01/25 02:57:17;;;;;;;66.03;40.38;;;4.20;99.90;;;;;;4953897;28;20042;-86
2022/01/25 02:59:43;;;;;;;64.03;40.40;;;4.20;99.90;;;;;;4952893;28;20046;-86
2022/01/25 03:02:09;;;;;;;65.55;42.13;;;4.20;99.90;;;;;;4975073;28;20046;-85
2022/01/25 03:04:34;;;;;;;65.82;41.53;;;4.20;99.90;;;;;;4965755;28;20527;-86
2022/01/25 03:07:00;;;;;;;63.78;41.05;;;4.20;99.90;;;;;;4973386;28;20050;-86
2022/01/25 03:09:26;;;;;;;67.82;39.58;;;4.10;99.90;;;;;;4973509;28;20526;-86
2022/01/25 03:11:54;;;;;;;65.05;40.90;;;4.20;99.90;;;;;;4951934;28;20042;-86
2022/01/25 03:14:21;;;;;;;66.70;40.05;;;4.20;99.90;;;;;;4950717;28;20327;-86
2022/01/25 03:17:04;;;;;;;68.20;40.85;;;4.10;99.90;;;;;;4968126;28;20074;-86
2022/01/25 03:24:52;;;;;;;67.60;39.70;;;4.10;99.90;;;;;;4952577;28;20043;-87
2022/01/25 03:27:17;;;;;;;64.40;39.10;;;4.10;99.90;;;;;;4971932;28;20050;-87
2022/01/25 03:29:43;;;;;;;71.03;41.30;;;4.10;99.90;;;;;;4996644;28;20077;-87
2022/01/25 03:32:09;;;;;;;69.95;41.42;;;4.10;99.90;;;;;;5012909;28;20041;-86
2022/01/25 03:34:34;;;;;;;69.18;41.53;;;4.10;99.90;;;;;;4994752;28;20116;-87
2022/01/25 03:37:00;;;;;;;66.25;39.60;;;4.10;99.90;;;;;;5011091;28;20084;-87
2022/01/25 03:39:25;;;;;;;67.80;39.40;;;4.10;99.90;;;;;;5029181;28;20108;-86
2022/01/25 03:41:51;;;;;;;70.82;40.88;;;4.10;99.90;;;;;;5012202;28;20548;-86
2022/01/25 03:44:18;;;;;;;68.38;40.80;;;4.10;99.90;;;;;;5012468;28;20124;-86
2022/01/25 03:52:00;;;;;;;63.97;36.97;;;4.00;99.90;;;;;;5028473;28;19924;-86
2022/01/25 03:54:25;;;;;;;69.30;38.30;;;4.00;99.90;;;;;;5029390;28;20045;-86
2022/01/25 03:56:51;;;;;;;64.90;39.30;;;4.00;99.90;;;;;;4998927;28;20390;-86
2022/01/25 03:59:17;;;;;;;62.40;39.03;;;4.10;99.90;;;;;;5012095;28;20478;-86
2022/01/25 04:01:43;;;;;;;67.45;39.72;;;4.10;99.90;;;;;;5010996;28;20045;-86
2022/01/25 04:04:13;;;;;;;63.95;37.95;;;4.00;99.90;;;;;;5011935;28;20037;-86
2022/01/25 04:06:39;;;;;;;59.75;36.40;;;4.10;99.90;;;;;;5010619;28;20402;-86
2022/01/25 04:09:07;;;;;;;67.10;39.58;;;4.10;99.90;;;;;;5010706;28;20164;-87
2022/01/25 04:11:34;;;;;;;66.93;39.67;;;4.10;99.90;;;;;;4992445;28;20048;-87
2022/01/25 04:14:00;;;;;;;63.40;38.65;;;4.10;99.90;;;;;;5009637;28;20121;-86
2022/01/25 04:16:32;;;;;;;66.57;39.63;;;4.10;99.90;;;;;;5010158;28;20056;-87
2022/01/25 04:19:06;;;;;;;61.58;38.05;;;4.10;99.90;;;;;;4994999;28;20115;-87
2022/01/25 04:26:47;;;;;;;67.93;39.08;;;4.10;99.90;;;;;;5028393;28;20057;-87
2022/01/25 04:29:13;;;;;;;66.38;39.22;;;4.10;99.90;;;;;;5010243;28;20514;-87
2022/01/25 04:31:39;;;;;;;66.85;38.25;;;4.10;99.90;;;;;;5009971;28;20116;-87
2022/01/25 04:34:25;;;;;;;66.05;39.38;;;4.10;99.90;;;;;;4995026;28;20060;-87
2022/01/25 04:48:52;;;;;;;65.13;40.33;;;4.10;99.90;;;;;;4994724;28;20049;-86
2022/01/25 04:51:04;;;;;;;68.53;40.40;;;4.10;99.90;;;;;;5021434;28;20049;-87
2022/01/25 04:58:57;;;;;;;65.10;37.70;;;4.10;99.90;;;;;;5010541;28;19928;-87
2022/01/25 05:01:23;;;;;;;66.43;37.92;;;4.10;99.90;;;;;;4994839;28;20041;-86
2022/01/25 05:06:16;;;;;;;67.85;40.35;;;4.10;99.90;;;;;;5011190;28;20045;-86
2022/01/25 05:08:47;;;;;;;66.28;38.92;;;4.10;99.90;;;;;;5010556;28;20460;-87
2022/01/25 05:11:26;;;;;;;65.68;39.05;;;4.10;99.90;;;;;;5011185;28;20067;-87
2022/01/25 05:14:08;;;;;;;65.35;39.50;;;4.10;99.90;;;;;;4994899;28;20038;-86
2022/01/25 05:16:38;;;;;;;67.75;38.70;;;4.10;99.90;;;;;;4993849;28;20053;-87
2022/01/25 05:24:25;;;;;;;65.53;38.28;;;4.10;99.90;;;;;;5014822;28;20057;-86
2022/01/25 05:26:51;;;;;;;66.00;38.38;;;4.10;99.90;;;;;;4997741;28;20134;-87
2022/01/25 05:29:16;;;;;;;66.47;37.92;;;4.10;99.90;;;;;;5015319;28;20045;-86
2022/01/25 05:31:42;;;;;;;66.70;38.40;;;4.10;99.90;;;;;;5013546;28;20410;-86
2022/01/25 05:34:08;;;;;;;59.28;36.30;;;4.10;99.90;;;;;;5015241;28;20044;-87
2022/01/25 05:36:35;;;;;;;63.95;39.75;;;4.10;99.90;;;;;;5007858;28;20041;-87
2022/01/25 05:39:07;;;;;;;65.70;36.85;;;4.10;99.90;;;;;;5012188;28;20114;-87
2022/01/25 05:41:33;;;;;;;67.70;39.03;;;4.10;99.90;;;;;;5026796;28;20046;-86
2022/01/25 05:46:34;;;;;;;64.78;39.75;;;4.10;99.90;;;;;;5012935;28;20061;-87
2022/01/25 05:49:00;;;;;;;63.33;38.17;;;4.10;99.90;;;;;;5014905;28;20045;-86
2022/01/25 05:51:26;;;;;;;64.05;37.35;;;4.20;99.90;;;;;;5013834;28;20041;-87
2022/01/25 05:53:51;;;;;;;64.28;36.83;;;4.10;99.90;;;;;;5013775;28;20030;-86
2022/01/25 05:56:17;;;;;;;63.58;37.15;;;4.10;99.90;;;;;;5032633;28;20053;-87
2022/01/25 05:58:43;;;;;;;68.78;39.15;;;4.10;99.90;;;;;;5011787;28;20120;-87
2022/01/25 06:01:08;;;;;;;66.10;40.10;;;4.10;99.90;;;;;;5013404;28;20055;-87
2022/01/25 06:03:34;;;;;;;66.85;39.13;;;4.10;99.90;;;;;;5011802;28;20049;-87
2022/01/25 06:06:00;;;;;;;67.30;38.25;;;4.10;99.90;;;;;;4997930;28;20496;-87
2022/01/25 06:08:25;;;;;;;65.70;39.38;;;4.10;99.90;;;;;;5013673;28;20402;-87
2022/01/25 06:10:51;;;;;;;67.82;39.00;;;4.10;99.90;;;;;;5031909;28;20445;-86
2022/01/25 06:13:17;;;;;;;66.55;36.63;;;4.10;99.90;;;;;;5031276;28;20469;-86
2022/01/25 06:15:42;;;;;;;62.58;36.80;;;4.10;99.90;;;;;;5012447;28;20033;-86
2022/01/25 06:18:08;;;;;;;66.20;39.03;;;4.10;99.90;;;;;;5014196;28;20041;-86
2022/01/25 06:20:33;;;;;;;67.72;40.70;;;4.10;99.90;;;;;;5012917;28;20049;-86
2022/01/25 06:22:59;;;;;;;68.13;36.22;;;4.00;99.90;;;;;;5013492;28;20052;-87
2022/01/25 06:25:25;;;;;;;66.25;38.03;;;4.00;99.90;;;;;;5015510;28;20052;-88
2022/01/25 06:27:51;;;;;;;67.55;37.28;;;4.00;99.90;;;;;;5013648;28;20494;-88
2022/01/25 06:30:18;;;;;;;63.90;39.35;;;4.00;99.90;;;;;;5014615;28;20446;-89
2022/01/25 06:32:45;;;;;;;68.38;39.50;;;4.10;99.90;;;;;;5012016;28;20492;-87
2022/01/25 06:35:13;;;;;;;68.15;38.38;;;4.10;99.90;;;;;;5016827;28;20037;-89
2022/01/25 06:37:38;;;;;;;65.20;40.35;;;4.10;99.90;;;;;;5026656;28;20045;-88
2022/01/25 06:40:06;;;;;;;64.78;38.70;;;4.10;99.90;;;;;;5013432;28;20049;-86
2022/01/25 06:42:32;;;;;;;69.03;38.63;;;4.10;99.90;;;;;;5012146;28;20087;-88
2022/01/25 06:45:04;;;;;;;65.30;38.67;;;4.10;99.90;;;;;;5029289;28;20037;-87
2022/01/25 06:47:29;;;;;;;65.45;38.38;;;4.10;99.90;;;;;;5028783;28;20536;-87
2022/01/25 06:49:56;;;;;;;68.45;39.90;;;4.10;99.90;;;;;;4989168;28;20041;-88
2022/01/25 06:52:23;;;;;;;68.95;39.75;;;4.10;99.90;;;;;;5013111;28;20045;-86
2022/01/25 06:54:48;;;;;;;64.50;38.50;;;4.10;99.90;;;;;;5011064;28;20049;-88
2022/01/25 06:57:14;;;;;;;63.58;37.55;;;4.10;99.90;;;;;;5012493;28;20041;-87
2022/01/25 06:59:39;;;;;;;63.63;37.25;;;4.10;99.90;;;;;;5011372;28;20048;-87
2022/01/25 07:02:06;;;;;;;67.45;39.75;;;4.10;99.90;;;;;;5011467;28;20041;-87
2022/01/25 07:04:32;;;;;;;68.38;40.50;;;4.20;99.90;;;;;;5010980;28;20455;-87
2022/01/25 07:06:57;;;;;;;65.93;37.45;;;4.10;99.90;;;;;;5012375;28;20132;-87
2022/01/25 07:09:23;;;;;;;59.75;37.13;;;4.20;99.90;;;;;;5011001;28;20049;-87
2022/01/25 07:11:48;;;;;;;69.82;38.53;;;4.20;99.90;;;;;;4993059;28;20037;-87
2022/01/25 07:14:14;;;;;;;66.35;38.08;;;4.20;99.90;;;;;;4996133;28;20045;-86
2022/01/25 07:16:39;;;;;;;64.90;36.75;;;4.20;99.90;;;;;;5010409;28;20056;-86
2022/01/25 07:19:05;;;;;;;72.65;40.30;;;4.20;99.90;;;;;;5003221;28;20096;-86
2022/01/25 07:21:31;;;;;;;66.95;38.13;;;4.20;99.90;;;;;;5011206;28;20041;-90
2022/01/25 07:23:56;;;;;;;71.13;39.35;;;4.20;99.90;;;;;;5012350;28;20053;-90
2022/01/25 07:26:22;;;;;;;69.65;40.65;;;4.20;99.90;;;;;;5010382;28;20049;-90
2022/01/25 07:28:47;;;;;;;68.38;39.50;;;4.20;99.90;;;;;;5011465;28;20037;-91
2022/01/25 07:31:13;;;;;;;63.75;36.15;;;4.20;99.90;;;;;;5013560;28;20406;-91
2022/01/25 07:33:38;;;;;;;67.63;40.17;;;4.10;99.90;;;;;;5029319;28;20030;-92
2022/01/25 07:36:07;;;;;;;65.85;37.60;;;4.10;99.90;;;;;;4995525;28;20049;-91
2022/01/25 07:38:32;;;;;;;66.63;36.55;;;4.10;99.90;;;;;;4996256;28;20052;-91
2022/01/25 07:40:59;;;;;;;68.35;36.28;;;4.10;99.90;;;;;;5030385;28;20124;-91
2022/01/25 07:43:25;;;;;;;67.10;38.92;;;4.00;99.90;;;;;;5011711;28;20401;-92
2022/01/25 07:45:53;;;;;;;67.90;38.55;;;4.00;99.90;;;;;;5010166;28;20124;-88
2022/01/25 07:48:19;;;;;;;66.20;37.67;;;4.10;99.90;;;;;;5012558;28;20053;-89
2022/01/25 07:50:45;;;;;;;67.63;37.20;;;4.10;99.90;;;;;;4993993;28;20052;-88
2022/01/25 07:53:11;;;;;;;69.32;39.65;;;4.10;99.90;;;;;;5029997;28;20041;-87
2022/01/25 07:55:36;;;;;;;68.75;37.65;;;4.10;99.90;;;;;;5009836;28;20045;-88
2022/01/25 07:58:03;;;;;;;69.32;37.58;;;4.10;99.90;;;;;;5011432;28;20045;-88
2022/01/25 08:00:29;;;;;;;67.43;36.95;;;4.10;99.90;;;;;;5010930;28;20048;-88
2022/01/25 08:02:55;;;;;;;65.20;36.85;;;4.10;99.90;;;;;;5010809;28;20049;-88
2022/01/25 08:05:24;;;;;;;66.80;38.10;;;4.10;99.90;;;;;;5011897;28;20088;-88
2022/01/25 08:07:49;;;;;;;71.30;37.08;;;4.10;99.90;;;;;;5003268;28;20470;-87
2022/01/25 08:10:15;;;;;;;66.80;37.33;;;4.10;99.90;;;;;;5016836;28;20052;-89
2022/01/25 08:12:41;;;;;;;68.57;38.83;;;4.10;99.90;;;;;;5035498;28;20124;-88
2022/01/25 08:15:07;;;;;;;68.13;38.58;;;4.10;99.90;;;;;;5029195;28;20390;-88
2022/01/25 08:17:33;;;;;;;64.15;38.60;;;4.10;99.90;;;;;;5010264;28;20108;-88
2022/01/25 08:19:58;;;;;;;65.28;37.28;;;4.10;99.90;;;;;;5010428;28;20057;-86
2022/01/25 08:22:24;;;;;;;68.40;36.38;;;4.10;99.90;;;;;;5011295;28;20073;-91
2022/01/25 08:24:51;;;;;;;66.45;37.28;;;4.10;99.90;;;;;;5011507;28;20392;-90
2022/01/25 08:27:20;;;;;;;67.68;37.85;;;4.10;99.90;;;;;;5011721;28;20055;-90
2022/01/25 08:29:53;;;;;;;63.22;35.08;;;4.10;99.90;;;;;;5028857;28;20049;-90
2022/01/25 08:32:20;;;;;;;66.30;36.60;;;4.10;99.90;;;;;;5030057;28;20468;-90
2022/01/25 08:34:46;;;;;;;67.90;38.20;;;4.10;99.90;;;;;;4994104;28;20037;-90
2022/01/25 08:37:14;;;;;;;63.15;36.83;;;4.20;99.90;;;;;;5012032;28;20141;-92
2022/01/25 08:39:40;;;;;;;65.00;38.08;;;4.20;99.90;;;;;;5027822;28;20398;-90
2022/01/25 08:42:08;;;;;;;64.85;35.95;;;4.20;99.90;;;;;;5012231;28;20042;-90
2022/01/25 08:44:34;;;;;;;63.08;35.20;;;4.20;99.90;;;;;;5029031;28;20128;-90
2022/01/25 08:47:00;;;;;;;66.63;36.92;;;4.20;99.90;;;;;;5028991;28;20048;-92
2022/01/25 08:49:25;;;;;;;65.88;39.15;;;4.20;99.90;;;;;;5011240;28;20037;-90
2022/01/25 08:51:51;;;;;;;65.32;38.95;;;4.20;99.90;;;;;;5012574;28;20133;-92
2022/01/25 08:54:17;;;;;;;64.75;38.10;;;4.20;99.90;;;;;;4991918;28;20463;-91
2022/01/25 08:56:43;;;;;;;66.35;37.25;;;4.30;99.90;;;;;;4994697;28;20081;-90
2022/01/25 08:59:10;;;;;;;69.68;38.30;;;4.30;99.90;;;;;;4999804;28;20041;-91
2022/01/25 09:01:36;;;;;;;66.40;38.13;;;4.20;99.90;;;;;;4998582;28;20049;-90
2022/01/25 09:04:02;;;;;;;66.93;37.03;;;4.20;99.90;;;;;;5014913;28;20510;-92
2022/01/25 09:06:28;;;;;;;63.50;36.58;;;4.20;99.90;;;;;;5015219;28;20073;-91
2022/01/25 09:09:01;;;;;;;70.15;38.83;;;4.20;99.90;;;;;;4981165;28;20460;-91
2022/01/25 09:11:27;;;;;;;65.03;35.83;;;4.30;99.90;;;;;;5012571;28;20053;-92
2022/01/25 09:13:52;;;;;;;65.82;37.42;;;4.20;99.90;;;;;;4998114;28;20402;-92
2022/01/25 09:16:18;;;;;;;66.25;36.08;;;4.20;99.90;;;;;;5003508;28;20041;-92
2022/01/25 09:18:43;;;;;;;66.72;35.85;;;4.20;99.90;;;;;;5014626;28;20041;-92
2022/01/25 09:21:10;;;;;;;67.53;38.13;;;4.30;99.90;;;;;;5012082;28;20415;-91
2022/01/25 09:23:36;;;;;;;62.05;34.92;;;4.30;99.90;;;;;;5011919;28;20096;-91
2022/01/25 09:26:03;;;;;;;65.38;34.85;;;4.30;99.90;;;;;;5011804;28;20077;-90
2022/01/25 09:28:29;;;;;;;63.75;35.55;;;4.20;99.90;;;;;;4993508;28;20136;-92
2022/01/25 09:30:55;;;;;;;65.03;35.88;;;4.30;99.90;;;;;;5015523;28;20046;-92
2022/01/25 09:33:22;;;;;;;66.57;36.67;;;4.30;99.90;;;;;;5022571;28;20049;-92
2022/01/25 09:35:49;;;;;;;66.95;36.83;;;4.30;99.90;;;;;;5023169;28;20107;-91
2022/01/25 09:38:14;;;;;;;67.10;38.00;;;4.30;99.90;;;;;;5014506;28;20045;-92
2022/01/25 09:40:40;;;;;;;68.65;37.70;;;4.30;99.90;;;;;;5014272;28;20117;-92
2022/01/25 09:43:07;;;;;;;65.30;37.15;;;4.30;99.90;;;;;;5013059;28;20613;-91
2022/01/25 09:45:33;;;;;;;67.47;36.75;;;4.40;99.90;;;;;;5013080;28;20403;-91
2022/01/25 09:47:59;;;;;;;66.90;38.88;;;4.40;99.90;;;;;;5013117;28;20458;-89
2022/01/25 09:50:26;;;;;;;67.95;38.30;;;4.40;99.90;;;;;;5012007;28;20072;-92
2022/01/25 09:52:52;;;;;;;68.13;38.03;;;4.30;99.90;;;;;;5033678;28;20117;-92
2022/01/25 09:55:22;;;;;;;65.82;37.80;;;4.40;99.90;;;;;;5015816;28;20042;-91
2022/01/25 09:57:48;;;;;;;66.10;37.63;;;4.40;99.90;;;;;;5011823;28;20529;-90
2022/01/25 10:00:17;;;;;;;70.60;37.20;;;4.40;99.90;;;;;;5011718;28;20317;-92
2022/01/25 10:03:01;;;;;;;71.47;38.60;;;4.40;99.90;;;;;;5015833;28;20054;-92
2022/01/25 10:05:33;;;;;;;68.65;38.65;;;4.40;99.90;;;;;;5013562;28;20093;-90
2022/01/25 10:08:14;;;;;;;66.78;37.25;;;4.50;99.90;;;;;;4999628;28;20046;-90
2022/01/25 10:10:54;;;;;;;63.85;35.67;;;4.50;99.90;;;;;;4996267;28;20054;-92
2022/01/25 10:13:22;;;;;;;68.85;36.17;;;4.50;99.90;;;;;;5011591;28;20048;-91
2022/01/25 10:15:50;;;;;;;67.57;38.17;;;4.50;99.90;;;;;;5012004;28;20486;-92
2022/01/25 10:18:16;;;;;;;72.05;41.80;;;4.50;99.90;;;;;;5011847;28;20042;-91
2022/01/25 10:20:48;;;;;;;66.35;39.40;;;4.50;99.90;;;;;;5011442;28;20406;-91
2022/01/25 10:23:17;;;;;;;69.90;39.88;;;4.50;99.90;;;;;;4996551;28;20042;-91
2022/01/25 10:25:48;;;;;;;66.82;37.03;;;4.50;99.90;;;;;;5019536;28;20033;-91
2022/01/25 10:28:15;;;;;;;66.05;37.35;;;4.50;99.90;;;;;;5013913;28;20049;-90
2022/01/25 10:30:49;;;;;;;73.30;38.15;;;4.50;99.90;;;;;;5013582;28;20054;-90
2022/01/25 10:33:29;;;;;;;65.70;35.55;;;4.50;99.90;;;;;;5016558;28;20046;-90
2022/01/25 10:35:58;;;;;;;65.00;37.25;;;4.50;99.90;;;;;;5001189;28;20069;-92
2022/01/25 10:38:30;;;;;;;70.30;37.88;;;4.50;99.90;;;;;;5014627;28;20050;-91
2022/01/25 10:41:02;;;;;;;67.28;36.03;;;4.50;99.90;;;;;;5013823;28;20034;-92
2022/01/25 10:43:29;;;;;;;64.40;40.08;;;4.50;99.90;;;;;;5012374;28;20045;-90
2022/01/25 10:46:23;;;;;;;66.70;38.05;;;4.60;99.90;;;;;;5013255;28;20065;-92
2022/01/25 10:48:56;;;;;;;65.00;37.45;;;4.60;99.90;;;;;;4996772;28;20058;-92
2022/01/25 10:51:24;;;;;;;67.85;36.38;;;4.50;99.90;;;;;;5013602;28;20050;-90
2022/01/25 10:54:08;;;;;;;69.45;39.45;;;4.60;99.90;;;;;;5013073;28;20313;-92
2022/01/25 10:56:46;;;;;;;72.63;39.95;;;4.60;99.90;;;;;;5000442;28;20349;-92
2022/01/25 10:59:18;;;;;;;68.93;37.50;;;4.60;99.90;;;;;;5014034;28;20514;-91
2022/01/25 11:01:54;;;;;;;65.45;37.70;;;4.60;99.90;;;;;;5010382;28;20077;-89
2022/01/25 11:04:24;;;;;;;67.00;38.35;;;4.60;99.90;;;;;;5014698;28;20042;-92
2022/01/25 11:07:07;;;;;;;63.58;37.10;;;4.60;99.90;;;;;;5029222;28;20014;-90
2022/01/25 11:09:38;;;;;;;67.38;38.78;;;4.60;99.90;;;;;;5032431;28;20042;-90
2022/01/25 11:12:06;;;;;;;;;;;4.60;99.90;;;;;;5015482;28;20097;-90
2022/01/25 11:14:50;;;;;;;64.38;36.75;;;4.60;99.90;;;;;;5015003;28;19940;-94
2022/01/25 11:17:16;;;;;;;64.63;36.83;;;4.60;99.90;;;;;;5010440;28;20049;-91
2022/01/25 11:19:42;;;;;;;67.30;38.58;;;4.60;99.90;;;;;;5004829;28;20046;-92
2022/01/25 11:22:13;;;;;;;69.38;36.50;;;4.70;99.90;;;;;;4992848;28;20061;-92
2022/01/25 11:24:40;;;;;;;66.38;36.47;;;4.70;99.90;;;;;;4973640;28;20046;-90
2022/01/25 11:27:07;;;;;;;68.55;37.88;;;4.70;99.90;;;;;;4990952;28;20522;-91
2022/01/25 11:29:35;;;;;;;66.90;38.85;;;4.70;99.90;;;;;;4972156;28;20046;-89
2022/01/25 11:32:11;;;;;;;67.93;40.13;;;4.80;99.90;;;;;;4991270;28;20040;-91
2022/01/25 11:34:38;;;;;;;67.38;39.10;;;4.80;99.90;;;;;;4988369;28;20052;-90
2022/01/25 11:37:07;;;;;;;64.60;35.92;;;4.80;99.90;;;;;;4991041;28;20069;-92
2022/01/25 11:39:34;;;;;;;67.30;38.50;;;4.80;99.90;;;;;;4989173;28;20093;-92
2022/01/25 11:42:13;;;;;;;67.78;38.08;;;4.80;99.90;;;;;;4990737;28;20050;-94
2022/01/25 11:45:06;;;;;;;63.25;37.38;;;4.80;99.90;;;;;;4990537;28;20034;-92
2022/01/25 11:47:36;;;;;;;65.18;37.30;;;4.80;99.90;;;;;;4991032;28;20053;-92
2022/01/25 11:50:09;;;;;;;64.38;35.60;;;4.80;99.90;;;;;;4991392;28;20364;-93
2022/01/25 11:52:35;;;;;;;66.45;38.83;;;4.80;99.90;;;;;;4989942;28;20041;-95
2022/01/25 11:55:21;;;;;;;67.03;39.17;;;4.80;99.90;;;;;;4991325;28;20134;-94
2022/01/25 11:57:59;;;;;;;64.00;35.63;;;4.80;99.90;;;;;;4989583;28;20121;-94
2022/01/25 12:00:43;;;;;;;65.63;37.28;;;4.80;99.90;;;;;;4989212;28;20046;-94
2022/01/25 12:03:44;;;;;;;65.60;36.20;;;4.80;99.90;;;;;;4990896;28;20061;-93
2022/01/25 12:06:20;;;;;;;66.28;39.10;;;4.80;99.90;;;;;;4980444;28;20061;-91
2022/01/25 12:09:09;;;;;;;66.35;38.50;;;4.80;99.90;;;;;;4989104;28;20053;-91
2022/01/25 12:11:48;;;;;;;63.33;35.30;;;4.80;99.90;;;;;;4990922;28;20057;-92
2022/01/25 12:14:28;;;;;;;65.05;38.83;;;4.80;99.90;;;;;;4989383;28;20043;-89
2022/01/25 12:17:03;;;;;;;65.88;37.55;;;4.80;99.90;;;;;;4990623;28;20039;-90
2022/01/25 12:19:51;;;;;;;58.92;37.42;;;4.80;99.90;;;;;;4993041;28;20129;-88
2022/01/25 12:22:27;;;;;;;67.00;37.28;;;4.80;99.90;;;;;;5011792;28;20045;-90
2022/01/25 12:25:21;;;;;;;70.60;37.75;;;4.90;99.90;;;;;;5026988;28;20137;-90
2022/01/25 12:27:59;;;;;;;64.05;36.28;;;4.80;99.90;;;;;;5011088;28;20057;-91
2022/01/25 12:30:25;;;;;;;66.32;37.58;;;4.80;99.90;;;;;;5010831;28;20060;-90
2022/01/25 12:33:02;;;;;;;65.38;36.95;;;4.80;99.90;;;;;;4994728;28;20049;-90
2022/01/25 12:35:32;;;;;;;64.30;36.65;;;4.80;99.90;;;;;;4994243;28;20397;-92
2022/01/25 12:38:00;;;;;;;62.73;37.27;;;4.80;99.90;;;;;;5011647;28;20045;-88
2022/01/25 12:40:25;;;;;;;63.15;36.70;;;4.90;99.90;;;;;;5026409;28;20041;-89
2022/01/25 12:43:04;;;;;;;65.25;39.90;;;4.80;99.90;;;;;;5010341;28;20049;-89
2022/01/25 12:45:34;;;;;;;64.68;38.92;;;4.90;99.90;;;;;;5026662;28;20041;-90
2022/01/25 12:48:01;;;;;;;61.92;35.45;;;4.90;99.90;;;;;;5009079;28;20063;-90
2022/01/25 12:50:29;;;;;;;64.00;38.15;;;4.90;99.90;;;;;;5008423;28;20041;-89
2022/01/25 12:52:57;;;;;;;62.03;38.67;;;4.90;99.90;;;;;;4994628;28;20052;-90
2022/01/25 12:55:35;;;;;;;60.42;36.20;;;4.90;99.90;;;;;;5009829;28;20087;-90
2022/01/25 12:58:02;;;;;;;66.20;35.33;;;4.90;99.90;;;;;;5029065;28;20394;-91
2022/01/25 13:00:31;;;;;;;62.20;37.78;;;4.90;99.90;;;;;;5009940;28;20037;-90
2022/01/25 13:03:27;;;;;;;58.28;35.20;;;4.90;99.90;;;;;;5028521;28;20050;-90
2022/01/25 13:05:58;;;;;;;60.75;38.13;;;4.90;99.90;;;;;;5010114;28;20041;-90
2022/01/25 13:08:54;;;;;;;65.93;38.05;;;4.90;99.90;;;;;;5010879;28;20038;-91
2022/01/25 13:17:02;;;;;;;64.38;35.47;;;4.90;99.90;;;;;;5010499;28;20423;-92
2022/01/25 13:19:36;;;;;;;68.35;36.75;;;4.90;99.90;;;;;;5010171;28;20056;-91
2022/01/25 13:22:13;;;;;;;64.55;36.70;;;4.90;99.90;;;;;;5010913;28;20479;-90
2022/01/25 13:25:08;;;;;;;66.68;39.28;;;4.90;99.90;;;;;;5009559;28;20660;-90
2022/01/25 13:27:46;;;;;;;61.88;35.95;;;4.90;99.90;;;;;;5009793;28;20167;-90
2022/01/25 13:32:58;;;;;;;64.07;36.20;;;4.80;99.90;;;;;;5010980;28;20045;-88
2022/01/25 13:35:33;;;;;;;62.33;35.05;;;4.80;99.90;;;;;;5010443;28;20128;-88
2022/01/25 13:38:13;;;;;;;63.70;37.70;;;4.80;99.90;;;;;;5011169;28;20159;-89
2022/01/25 13:41:00;;;;;;;66.57;37.95;;;4.80;99.90;;;;;;5009908;28;20476;-88
2022/01/25 13:45:43;;;;;;;62.78;34.40;;;4.80;99.90;;;;;;5019221;28;20049;-88
2022/01/25 13:46:19;;;;;;;67.55;36.10;;;4.80;99.90;;;;;;5014787;28;20041;-89
2022/01/25 13:48:46;;;;;;;63.38;35.78;;;4.70;99.90;;;;;;4995315;28;20049;-90
2022/01/25 13:51:16;;;;;;;64.07;36.30;;;4.70;99.90;;;;;;5012847;28;20041;-89
2022/01/25 13:53:42;;;;;;;63.80;34.28;;;4.80;99.90;;;;;;4996864;28;20124;-89
2022/01/25 13:56:15;;;;;;;63.38;34.38;;;4.70;99.90;;;;;;5032083;28;20418;-87
2022/01/25 13:58:44;;;;;;;61.20;34.00;;;4.70;99.90;;;;;;5005213;28;20098;-87
2022/01/25 14:01:13;;;;;;;61.03;33.65;;;4.70;99.90;;;;;;5013623;28;20049;-87
2022/01/25 14:03:43;;;;;;;62.03;34.58;;;4.70;99.90;;;;;;5013180;28;20042;-86
2022/01/25 14:06:30;;;;;;;64.18;34.47;;;4.70;99.90;;;;;;4998196;28;20034;-85
2022/01/25 14:09:07;;;;;;;66.47;35.42;;;4.60;99.90;;;;;;5027271;28;20064;-87
2022/01/25 14:21:39;;;;;;;64.15;35.78;;;4.60;99.90;;;;;;5029015;28;20051;-86
2022/01/25 14:23:05;;;;;;;61.83;33.92;;;4.60;99.90;;;;;;5013262;28;20390;-86
2022/01/25 14:25:34;;;;;;;66.00;34.92;;;4.60;99.90;;;;;;5012061;28;20045;-86
2022/01/25 14:28:14;;;;;;;60.47;36.20;;;4.60;99.90;;;;;;4997007;28;20037;-86
2022/01/25 14:30:43;;;;;;;66.40;33.80;;;4.70;99.90;;;;;;4996349;28;20059;-86
2022/01/25 14:33:15;;;;;;;66.13;39.28;;;4.60;99.90;;;;;;5013493;28;20046;-87
2022/01/25 14:35:44;;;;;;;66.03;35.00;;;4.70;99.90;;;;;;5012207;28;20132;-86
2022/01/25 14:38:21;;;;;;;66.85;36.00;;;4.70;99.90;;;;;;5013422;28;20141;-86
2022/01/25 14:41:09;;;;;;;62.03;36.03;;;4.60;99.90;;;;;;5005006;28;20053;-86
2022/01/25 14:43:48;;;;;;;66.45;38.25;;;4.70;99.90;;;;;;5027754;28;20056;-87
2022/01/25 14:46:31;;;;;;;63.00;33.85;;;4.70;99.90;;;;;;5012927;28;20052;-87
2022/01/25 14:49:10;;;;;;;60.00;33.15;;;4.60;99.90;;;;;;4997355;28;20524;-86
2022/01/25 14:51:38;;;;;;;67.07;37.08;;;4.60;99.90;;;;;;5011480;28;20520;-85
2022/01/25 14:54:08;;;;;;;63.22;33.97;;;4.60;99.90;;;;;;4996029;28;20046;-86
2022/01/25 14:56:37;;;;;;;61.95;35.22;;;4.60;99.90;;;;;;5012498;28;20148;-87
2022/01/25 14:59:28;;;;;;;65.72;36.55;;;4.60;99.90;;;;;;5012307;28;20041;-86
2022/01/25 15:02:02;;;;;;;63.53;34.00;;;4.60;99.90;;;;;;5012493;28;20053;-86
2022/01/25 15:04:37;;;;;;;67.18;35.15;;;4.60;99.90;;;;;;5012441;28;20042;-86